sensor_id;sensor_type;location;lat;lon;timestamp;P1;durP1;ratioP1;P2;durP2;ratioP2
4268;SDS011;2148;48.554;7.834;2024-01-15T00:00:45;31.23;;;15.93;;
4268;SDS011;2148;48.554;7.834;2024-01-15T00:03:11;31.03;;;14.50;;
4268;SDS011;2148;48.554;7.834;2024-01-15T00:05:36;37.57;;;18.07;;
4268;SDS011;2148;48.554;7.834;2024-01-15T00:08:01;38.10;;;19.97;;
4268;SDS011;2148;48.554;7.834;2024-01-15T00:10:27;38.13;;;21.13;;
4268;SDS011;2148;48.554;7.834;2024-01-15T00:12:52;48.43;;;23.20;;
4268;SDS011;2148;48.554;7.834;2024-01-15T00:15:17;36.90;;;20.30;;
4268;SDS011;2148;48.554;7.834;2024-01-15T00:17:42;37.43;;;20.17;;
4268;SDS011;2148;48.554;7.834;2024-01-15T00:20:08;35.80;;;20.10;;
4268;SDS011;2148;48.554;7.834;2024-01-15T00:22:33;39.50;;;20.77;;
4268;SDS011;2148;48.554;7.834;2024-01-15T00:25:00;38.90;;;19.50;;
4268;SDS011;2148;48.554;7.834;2024-01-15T00:27:26;35.00;;;20.27;;
4268;SDS011;2148;48.554;7.834;2024-01-15T00:29:51;40.00;;;19.63;;
4268;SDS011;2148;48.554;7.834;2024-01-15T00:32:17;37.40;;;20.50;;
4268;SDS011;2148;48.554;7.834;2024-01-15T00:34:42;37.23;;;20.33;;
4268;SDS011;2148;48.554;7.834;2024-01-15T00:37:07;34.53;;;19.27;;
4268;SDS011;2148;48.554;7.834;2024-01-15T00:39:33;37.10;;;19.03;;
4268;SDS011;2148;48.554;7.834;2024-01-15T00:41:58;34.23;;;18.67;;
4268;SDS011;2148;48.554;7.834;2024-01-15T00:44:23;33.87;;;19.50;;
4268;SDS011;2148;48.554;7.834;2024-01-15T00:46:48;37.63;;;19.33;;
4268;SDS011;2148;48.554;7.834;2024-01-15T00:49:14;34.20;;;18.77;;
4268;SDS011;2148;48.554;7.834;2024-01-15T00:51:39;36.83;;;19.40;;
4268;SDS011;2148;48.554;7.834;2024-01-15T00:54:04;32.40;;;18.23;;
4268;SDS011;2148;48.554;7.834;2024-01-15T00:56:30;34.40;;;19.37;;
4268;SDS011;2148;48.554;7.834;2024-01-15T00:58:55;39.27;;;20.10;;
4268;SDS011;2148;48.554;7.834;2024-01-15T01:01:20;30.83;;;19.23;;
4268;SDS011;2148;48.554;7.834;2024-01-15T01:03:45;34.93;;;18.57;;
4268;SDS011;2148;48.554;7.834;2024-01-15T01:06:11;37.93;;;21.10;;
4268;SDS011;2148;48.554;7.834;2024-01-15T01:08:36;36.60;;;19.57;;
4268;SDS011;2148;48.554;7.834;2024-01-15T01:11:01;38.23;;;19.53;;
4268;SDS011;2148;48.554;7.834;2024-01-15T01:13:26;34.47;;;19.10;;
4268;SDS011;2148;48.554;7.834;2024-01-15T01:15:52;36.03;;;19.77;;
4268;SDS011;2148;48.554;7.834;2024-01-15T01:18:17;37.70;;;19.80;;
4268;SDS011;2148;48.554;7.834;2024-01-15T01:20:42;33.50;;;19.77;;
4268;SDS011;2148;48.554;7.834;2024-01-15T01:23:07;33.27;;;19.10;;
4268;SDS011;2148;48.554;7.834;2024-01-15T01:25:33;38.80;;;20.47;;
4268;SDS011;2148;48.554;7.834;2024-01-15T01:27:58;35.47;;;19.63;;
4268;SDS011;2148;48.554;7.834;2024-01-15T01:30:23;37.73;;;19.83;;
4268;SDS011;2148;48.554;7.834;2024-01-15T01:32:48;37.37;;;18.67;;
4268;SDS011;2148;48.554;7.834;2024-01-15T01:35:13;33.43;;;18.27;;
4268;SDS011;2148;48.554;7.834;2024-01-15T01:37:39;35.97;;;20.40;;
4268;SDS011;2148;48.554;7.834;2024-01-15T01:40:05;34.00;;;18.37;;
4268;SDS011;2148;48.554;7.834;2024-01-15T01:42:30;39.07;;;19.30;;
4268;SDS011;2148;48.554;7.834;2024-01-15T01:44:56;38.53;;;20.07;;
4268;SDS011;2148;48.554;7.834;2024-01-15T01:47:21;37.67;;;19.80;;
4268;SDS011;2148;48.554;7.834;2024-01-15T01:49:46;38.47;;;20.27;;
4268;SDS011;2148;48.554;7.834;2024-01-15T01:52:12;34.20;;;18.27;;
4268;SDS011;2148;48.554;7.834;2024-01-15T01:54:38;34.87;;;19.23;;
4268;SDS011;2148;48.554;7.834;2024-01-15T01:57:05;32.03;;;18.43;;
4268;SDS011;2148;48.554;7.834;2024-01-15T01:59:30;31.77;;;19.60;;
4268;SDS011;2148;48.554;7.834;2024-01-15T02:01:57;35.53;;;20.17;;
4268;SDS011;2148;48.554;7.834;2024-01-15T02:04:23;33.60;;;19.47;;
4268;SDS011;2148;48.554;7.834;2024-01-15T02:06:49;38.30;;;18.87;;
4268;SDS011;2148;48.554;7.834;2024-01-15T02:09:15;35.23;;;19.77;;
4268;SDS011;2148;48.554;7.834;2024-01-15T02:11:41;37.47;;;21.10;;
4268;SDS011;2148;48.554;7.834;2024-01-15T02:14:07;31.40;;;16.47;;
4268;SDS011;2148;48.554;7.834;2024-01-15T02:16:32;36.30;;;20.33;;
4268;SDS011;2148;48.554;7.834;2024-01-15T02:18:57;33.83;;;18.07;;
4268;SDS011;2148;48.554;7.834;2024-01-15T02:21:22;32.70;;;16.60;;
4268;SDS011;2148;48.554;7.834;2024-01-15T02:23:48;36.20;;;18.97;;
4268;SDS011;2148;48.554;7.834;2024-01-15T02:26:13;36.87;;;19.37;;
4268;SDS011;2148;48.554;7.834;2024-01-15T02:28:40;33.93;;;18.43;;
4268;SDS011;2148;48.554;7.834;2024-01-15T02:31:06;36.07;;;20.57;;
4268;SDS011;2148;48.554;7.834;2024-01-15T02:33:31;30.97;;;18.80;;
4268;SDS011;2148;48.554;7.834;2024-01-15T02:35:57;30.20;;;16.00;;
4268;SDS011;2148;48.554;7.834;2024-01-15T02:38:22;32.43;;;16.47;;
4268;SDS011;2148;48.554;7.834;2024-01-15T02:40:47;28.40;;;14.43;;
4268;SDS011;2148;48.554;7.834;2024-01-15T02:43:12;31.53;;;15.80;;
4268;SDS011;2148;48.554;7.834;2024-01-15T02:45:38;28.97;;;13.87;;
4268;SDS011;2148;48.554;7.834;2024-01-15T02:48:04;32.97;;;17.40;;
4268;SDS011;2148;48.554;7.834;2024-01-15T02:50:29;25.57;;;15.23;;
4268;SDS011;2148;48.554;7.834;2024-01-15T02:52:55;30.07;;;15.97;;
4268;SDS011;2148;48.554;7.834;2024-01-15T02:55:20;30.20;;;15.03;;
4268;SDS011;2148;48.554;7.834;2024-01-15T02:57:45;20.07;;;10.47;;
4268;SDS011;2148;48.554;7.834;2024-01-15T03:00:10;27.67;;;14.90;;
4268;SDS011;2148;48.554;7.834;2024-01-15T03:02:36;20.97;;;13.53;;
4268;SDS011;2148;48.554;7.834;2024-01-15T03:05:04;23.03;;;12.77;;
4268;SDS011;2148;48.554;7.834;2024-01-15T03:07:31;30.60;;;14.40;;
4268;SDS011;2148;48.554;7.834;2024-01-15T03:09:56;20.93;;;10.20;;
4268;SDS011;2148;48.554;7.834;2024-01-15T03:12:21;25.83;;;14.00;;
4268;SDS011;2148;48.554;7.834;2024-01-15T03:14:47;20.23;;;11.57;;
4268;SDS011;2148;48.554;7.834;2024-01-15T03:17:12;20.80;;;10.00;;
4268;SDS011;2148;48.554;7.834;2024-01-15T03:19:38;28.50;;;15.73;;
4268;SDS011;2148;48.554;7.834;2024-01-15T03:22:03;30.53;;;12.87;;
4268;SDS011;2148;48.554;7.834;2024-01-15T03:24:29;31.43;;;15.83;;
4268;SDS011;2148;48.554;7.834;2024-01-15T03:26:54;33.67;;;17.53;;
4268;SDS011;2148;48.554;7.834;2024-01-15T03:29:20;31.77;;;15.97;;
4268;SDS011;2148;48.554;7.834;2024-01-15T03:31:45;29.33;;;14.80;;
4268;SDS011;2148;48.554;7.834;2024-01-15T03:34:10;27.60;;;13.57;;
4268;SDS011;2148;48.554;7.834;2024-01-15T03:36:36;26.53;;;14.57;;
4268;SDS011;2148;48.554;7.834;2024-01-15T03:39:01;20.97;;;12.13;;
4268;SDS011;2148;48.554;7.834;2024-01-15T03:41:26;30.30;;;14.07;;
4268;SDS011;2148;48.554;7.834;2024-01-15T03:43:52;23.17;;;14.00;;
4268;SDS011;2148;48.554;7.834;2024-01-15T03:46:17;30.97;;;16.70;;
4268;SDS011;2148;48.554;7.834;2024-01-15T03:48:42;37.80;;;16.60;;
4268;SDS011;2148;48.554;7.834;2024-01-15T03:51:07;25.00;;;15.10;;
4268;SDS011;2148;48.554;7.834;2024-01-15T03:53:33;35.07;;;18.63;;
4268;SDS011;2148;48.554;7.834;2024-01-15T03:55:58;27.30;;;14.10;;
4268;SDS011;2148;48.554;7.834;2024-01-15T03:58:23;24.40;;;12.40;;
4268;SDS011;2148;48.554;7.834;2024-01-15T04:00:49;21.93;;;13.23;;
4268;SDS011;2148;48.554;7.834;2024-01-15T04:03:14;15.57;;;10.07;;
4268;SDS011;2148;48.554;7.834;2024-01-15T04:05:39;24.40;;;12.83;;
4268;SDS011;2148;48.554;7.834;2024-01-15T04:08:05;32.63;;;16.93;;
4268;SDS011;2148;48.554;7.834;2024-01-15T04:10:30;15.33;;;9.03;;
4268;SDS011;2148;48.554;7.834;2024-01-15T04:12:56;21.97;;;12.50;;
4268;SDS011;2148;48.554;7.834;2024-01-15T04:15:22;16.80;;;10.40;;
4268;SDS011;2148;48.554;7.834;2024-01-15T04:17:47;37.33;;;20.73;;
4268;SDS011;2148;48.554;7.834;2024-01-15T04:20:12;15.90;;;8.07;;
4268;SDS011;2148;48.554;7.834;2024-01-15T04:22:37;31.63;;;18.40;;
4268;SDS011;2148;48.554;7.834;2024-01-15T04:25:03;24.20;;;12.87;;
4268;SDS011;2148;48.554;7.834;2024-01-15T04:27:28;38.50;;;20.27;;
4268;SDS011;2148;48.554;7.834;2024-01-15T04:29:54;35.43;;;19.37;;
4268;SDS011;2148;48.554;7.834;2024-01-15T04:32:19;42.13;;;20.77;;
4268;SDS011;2148;48.554;7.834;2024-01-15T04:34:45;36.50;;;19.57;;
4268;SDS011;2148;48.554;7.834;2024-01-15T04:37:10;38.63;;;20.53;;
4268;SDS011;2148;48.554;7.834;2024-01-15T04:39:35;38.47;;;20.93;;
4268;SDS011;2148;48.554;7.834;2024-01-15T04:42:01;37.60;;;19.17;;
4268;SDS011;2148;48.554;7.834;2024-01-15T04:44:26;27.73;;;16.23;;
4268;SDS011;2148;48.554;7.834;2024-01-15T04:46:51;22.70;;;11.43;;
4268;SDS011;2148;48.554;7.834;2024-01-15T04:49:17;21.53;;;10.60;;
4268;SDS011;2148;48.554;7.834;2024-01-15T04:51:42;23.53;;;12.07;;
4268;SDS011;2148;48.554;7.834;2024-01-15T04:54:07;18.83;;;8.63;;
4268;SDS011;2148;48.554;7.834;2024-01-15T04:56:32;32.03;;;16.73;;
4268;SDS011;2148;48.554;7.834;2024-01-15T04:58:58;25.10;;;14.03;;
4268;SDS011;2148;48.554;7.834;2024-01-15T05:01:23;27.47;;;13.67;;
4268;SDS011;2148;48.554;7.834;2024-01-15T05:03:48;27.63;;;13.50;;
4268;SDS011;2148;48.554;7.834;2024-01-15T05:06:14;12.93;;;8.23;;
4268;SDS011;2148;48.554;7.834;2024-01-15T05:08:39;32.13;;;17.87;;
4268;SDS011;2148;48.554;7.834;2024-01-15T05:11:05;15.23;;;9.23;;
4268;SDS011;2148;48.554;7.834;2024-01-15T05:13:30;23.10;;;13.00;;
4268;SDS011;2148;48.554;7.834;2024-01-15T05:15:55;20.27;;;13.10;;
4268;SDS011;2148;48.554;7.834;2024-01-15T05:18:20;36.77;;;19.43;;
4268;SDS011;2148;48.554;7.834;2024-01-15T05:20:46;30.80;;;19.67;;
4268;SDS011;2148;48.554;7.834;2024-01-15T05:23:11;23.53;;;13.10;;
4268;SDS011;2148;48.554;7.834;2024-01-15T05:25:36;26.80;;;15.27;;
4268;SDS011;2148;48.554;7.834;2024-01-15T05:28:01;37.70;;;20.10;;
4268;SDS011;2148;48.554;7.834;2024-01-15T05:30:27;33.00;;;15.83;;
4268;SDS011;2148;48.554;7.834;2024-01-15T05:32:52;35.20;;;19.30;;
4268;SDS011;2148;48.554;7.834;2024-01-15T05:35:17;37.13;;;21.60;;
4268;SDS011;2148;48.554;7.834;2024-01-15T05:37:43;37.23;;;19.77;;
4268;SDS011;2148;48.554;7.834;2024-01-15T05:40:10;8.13;;;7.10;;
4268;SDS011;2148;48.554;7.834;2024-01-15T05:42:36;15.40;;;10.47;;
4268;SDS011;2148;48.554;7.834;2024-01-15T05:45:01;15.13;;;8.87;;
4268;SDS011;2148;48.554;7.834;2024-01-15T05:47:29;13.57;;;9.83;;
4268;SDS011;2148;48.554;7.834;2024-01-15T05:49:55;23.30;;;12.63;;
4268;SDS011;2148;48.554;7.834;2024-01-15T05:52:21;20.43;;;13.47;;
4268;SDS011;2148;48.554;7.834;2024-01-15T05:54:47;17.33;;;9.83;;
4268;SDS011;2148;48.554;7.834;2024-01-15T05:57:12;34.53;;;15.67;;
4268;SDS011;2148;48.554;7.834;2024-01-15T05:59:37;36.17;;;20.53;;
4268;SDS011;2148;48.554;7.834;2024-01-15T06:02:03;24.37;;;11.77;;
4268;SDS011;2148;48.554;7.834;2024-01-15T06:04:28;18.63;;;10.70;;
4268;SDS011;2148;48.554;7.834;2024-01-15T06:06:53;24.77;;;13.33;;
4268;SDS011;2148;48.554;7.834;2024-01-15T06:09:18;22.30;;;11.20;;
4268;SDS011;2148;48.554;7.834;2024-01-15T06:11:44;21.53;;;12.20;;
4268;SDS011;2148;48.554;7.834;2024-01-15T06:14:09;18.63;;;11.67;;
4268;SDS011;2148;48.554;7.834;2024-01-15T06:16:34;18.73;;;8.30;;
4268;SDS011;2148;48.554;7.834;2024-01-15T06:18:59;34.33;;;14.43;;
4268;SDS011;2148;48.554;7.834;2024-01-15T06:21:25;31.73;;;16.27;;
4268;SDS011;2148;48.554;7.834;2024-01-15T06:23:50;33.33;;;18.43;;
4268;SDS011;2148;48.554;7.834;2024-01-15T06:26:15;21.67;;;11.43;;
4268;SDS011;2148;48.554;7.834;2024-01-15T06:28:41;31.03;;;16.23;;
4268;SDS011;2148;48.554;7.834;2024-01-15T06:31:06;33.40;;;19.63;;
4268;SDS011;2148;48.554;7.834;2024-01-15T06:33:32;35.03;;;20.67;;
4268;SDS011;2148;48.554;7.834;2024-01-15T06:35:57;32.87;;;18.67;;
4268;SDS011;2148;48.554;7.834;2024-01-15T06:38:22;37.00;;;20.13;;
4268;SDS011;2148;48.554;7.834;2024-01-15T06:40:48;34.30;;;19.03;;
4268;SDS011;2148;48.554;7.834;2024-01-15T06:43:17;34.80;;;19.50;;
4268;SDS011;2148;48.554;7.834;2024-01-15T06:45:43;25.50;;;14.37;;
4268;SDS011;2148;48.554;7.834;2024-01-15T06:48:08;31.83;;;16.50;;
4268;SDS011;2148;48.554;7.834;2024-01-15T06:50:34;29.37;;;16.20;;
4268;SDS011;2148;48.554;7.834;2024-01-15T06:52:59;16.60;;;9.23;;
4268;SDS011;2148;48.554;7.834;2024-01-15T06:55:24;36.07;;;18.43;;
4268;SDS011;2148;48.554;7.834;2024-01-15T06:57:50;36.13;;;19.10;;
4268;SDS011;2148;48.554;7.834;2024-01-15T07:00:16;32.97;;;18.73;;
4268;SDS011;2148;48.554;7.834;2024-01-15T07:02:41;31.30;;;19.20;;
4268;SDS011;2148;48.554;7.834;2024-01-15T07:05:06;29.43;;;18.60;;
4268;SDS011;2148;48.554;7.834;2024-01-15T07:07:32;30.97;;;18.10;;
4268;SDS011;2148;48.554;7.834;2024-01-15T07:09:57;36.67;;;20.87;;
4268;SDS011;2148;48.554;7.834;2024-01-15T07:12:22;32.60;;;19.27;;
4268;SDS011;2148;48.554;7.834;2024-01-15T07:14:48;32.10;;;18.27;;
4268;SDS011;2148;48.554;7.834;2024-01-15T07:17:13;27.30;;;17.10;;
4268;SDS011;2148;48.554;7.834;2024-01-15T07:19:39;30.83;;;16.23;;
4268;SDS011;2148;48.554;7.834;2024-01-15T07:22:04;29.93;;;17.63;;
4268;SDS011;2148;48.554;7.834;2024-01-15T07:24:29;29.23;;;15.70;;
4268;SDS011;2148;48.554;7.834;2024-01-15T07:26:55;33.70;;;17.73;;
4268;SDS011;2148;48.554;7.834;2024-01-15T07:29:20;25.13;;;14.67;;
4268;SDS011;2148;48.554;7.834;2024-01-15T07:31:51;29.00;;;15.87;;
4268;SDS011;2148;48.554;7.834;2024-01-15T07:34:17;30.30;;;18.47;;
4268;SDS011;2148;48.554;7.834;2024-01-15T07:36:46;34.77;;;20.20;;
4268;SDS011;2148;48.554;7.834;2024-01-15T07:39:11;35.03;;;19.27;;
4268;SDS011;2148;48.554;7.834;2024-01-15T07:41:36;36.77;;;18.10;;
4268;SDS011;2148;48.554;7.834;2024-01-15T07:44:02;24.57;;;13.43;;
4268;SDS011;2148;48.554;7.834;2024-01-15T07:46:27;36.70;;;21.77;;
4268;SDS011;2148;48.554;7.834;2024-01-15T07:48:52;29.33;;;18.03;;
4268;SDS011;2148;48.554;7.834;2024-01-15T07:51:21;41.90;;;23.63;;
4268;SDS011;2148;48.554;7.834;2024-01-15T07:53:47;64.43;;;37.13;;
4268;SDS011;2148;48.554;7.834;2024-01-15T07:56:13;52.27;;;31.50;;
4268;SDS011;2148;48.554;7.834;2024-01-15T07:58:38;39.80;;;23.03;;
4268;SDS011;2148;48.554;7.834;2024-01-15T08:01:03;34.53;;;20.33;;
4268;SDS011;2148;48.554;7.834;2024-01-15T08:03:29;40.40;;;21.97;;
4268;SDS011;2148;48.554;7.834;2024-01-15T08:05:54;33.73;;;21.30;;
4268;SDS011;2148;48.554;7.834;2024-01-15T08:08:22;38.40;;;22.30;;
4268;SDS011;2148;48.554;7.834;2024-01-15T08:10:48;33.37;;;19.43;;
4268;SDS011;2148;48.554;7.834;2024-01-15T08:13:13;44.40;;;26.37;;
4268;SDS011;2148;48.554;7.834;2024-01-15T08:15:39;41.87;;;20.93;;
4268;SDS011;2148;48.554;7.834;2024-01-15T08:18:04;40.13;;;21.63;;
4268;SDS011;2148;48.554;7.834;2024-01-15T08:20:30;33.17;;;18.30;;
4268;SDS011;2148;48.554;7.834;2024-01-15T08:22:55;36.83;;;20.50;;
4268;SDS011;2148;48.554;7.834;2024-01-15T08:25:21;34.50;;;19.07;;
4268;SDS011;2148;48.554;7.834;2024-01-15T08:27:46;30.23;;;17.87;;
4268;SDS011;2148;48.554;7.834;2024-01-15T08:30:11;34.73;;;19.13;;
4268;SDS011;2148;48.554;7.834;2024-01-15T08:32:37;32.60;;;18.50;;
4268;SDS011;2148;48.554;7.834;2024-01-15T08:35:07;35.30;;;19.60;;
4268;SDS011;2148;48.554;7.834;2024-01-15T08:37:32;34.37;;;18.00;;
4268;SDS011;2148;48.554;7.834;2024-01-15T08:39:57;30.70;;;18.13;;
4268;SDS011;2148;48.554;7.834;2024-01-15T08:42:22;34.13;;;19.03;;
4268;SDS011;2148;48.554;7.834;2024-01-15T08:44:48;30.77;;;16.10;;
4268;SDS011;2148;48.554;7.834;2024-01-15T08:47:13;34.27;;;17.57;;
4268;SDS011;2148;48.554;7.834;2024-01-15T08:49:39;37.23;;;19.77;;
4268;SDS011;2148;48.554;7.834;2024-01-15T08:58:49;37.53;;;20.10;;
4268;SDS011;2148;48.554;7.834;2024-01-15T09:01:15;34.73;;;18.43;;
4268;SDS011;2148;48.554;7.834;2024-01-15T09:03:40;37.37;;;19.13;;
4268;SDS011;2148;48.554;7.834;2024-01-15T09:06:07;37.20;;;20.97;;
4268;SDS011;2148;48.554;7.834;2024-01-15T09:08:34;22.03;;;12.87;;
4268;SDS011;2148;48.554;7.834;2024-01-15T09:10:59;31.27;;;16.53;;
4268;SDS011;2148;48.554;7.834;2024-01-15T09:13:27;31.37;;;16.90;;
4268;SDS011;2148;48.554;7.834;2024-01-15T09:15:53;21.27;;;11.13;;
4268;SDS011;2148;48.554;7.834;2024-01-15T09:18:18;25.20;;;11.07;;
4268;SDS011;2148;48.554;7.834;2024-01-15T09:20:43;33.00;;;17.40;;
4268;SDS011;2148;48.554;7.834;2024-01-15T09:23:08;28.57;;;14.50;;
4268;SDS011;2148;48.554;7.834;2024-01-15T09:25:34;17.07;;;8.80;;
4268;SDS011;2148;48.554;7.834;2024-01-15T09:27:59;15.80;;;7.80;;
4268;SDS011;2148;48.554;7.834;2024-01-15T09:30:24;17.90;;;10.23;;
4268;SDS011;2148;48.554;7.834;2024-01-15T09:32:50;16.37;;;10.10;;
4268;SDS011;2148;48.554;7.834;2024-01-15T09:35:15;21.93;;;10.73;;
4268;SDS011;2148;48.554;7.834;2024-01-15T09:37:40;25.07;;;12.33;;
4268;SDS011;2148;48.554;7.834;2024-01-15T09:40:06;17.20;;;9.87;;
4268;SDS011;2148;48.554;7.834;2024-01-15T09:42:33;10.87;;;6.73;;
4268;SDS011;2148;48.554;7.834;2024-01-15T09:45:00;19.20;;;10.27;;
4268;SDS011;2148;48.554;7.834;2024-01-15T09:47:26;26.07;;;12.30;;
4268;SDS011;2148;48.554;7.834;2024-01-15T09:49:51;23.43;;;11.33;;
4268;SDS011;2148;48.554;7.834;2024-01-15T09:52:16;28.93;;;15.77;;
4268;SDS011;2148;48.554;7.834;2024-01-15T09:54:44;21.13;;;12.40;;
4268;SDS011;2148;48.554;7.834;2024-01-15T09:57:10;19.50;;;10.70;;
4268;SDS011;2148;48.554;7.834;2024-01-15T09:59:36;30.20;;;17.00;;
4268;SDS011;2148;48.554;7.834;2024-01-15T10:02:01;23.63;;;13.50;;
4268;SDS011;2148;48.554;7.834;2024-01-15T10:04:26;20.00;;;9.43;;
4268;SDS011;2148;48.554;7.834;2024-01-15T10:06:52;22.80;;;11.73;;
4268;SDS011;2148;48.554;7.834;2024-01-15T10:09:17;23.43;;;15.07;;
4268;SDS011;2148;48.554;7.834;2024-01-15T10:11:43;23.90;;;13.30;;
4268;SDS011;2148;48.554;7.834;2024-01-15T10:14:09;11.60;;;7.17;;
4268;SDS011;2148;48.554;7.834;2024-01-15T10:16:39;14.80;;;8.40;;
4268;SDS011;2148;48.554;7.834;2024-01-15T10:19:04;16.80;;;9.50;;
4268;SDS011;2148;48.554;7.834;2024-01-15T10:21:31;16.03;;;9.97;;
4268;SDS011;2148;48.554;7.834;2024-01-15T10:23:59;14.77;;;8.40;;
4268;SDS011;2148;48.554;7.834;2024-01-15T10:26:25;21.80;;;14.13;;
4268;SDS011;2148;48.554;7.834;2024-01-15T10:28:51;15.40;;;9.70;;
4268;SDS011;2148;48.554;7.834;2024-01-15T10:31:17;22.43;;;11.37;;
4268;SDS011;2148;48.554;7.834;2024-01-15T10:33:44;16.37;;;8.40;;
4268;SDS011;2148;48.554;7.834;2024-01-15T10:36:09;14.60;;;10.10;;
4268;SDS011;2148;48.554;7.834;2024-01-15T10:38:35;12.80;;;7.63;;
4268;SDS011;2148;48.554;7.834;2024-01-15T10:41:01;23.77;;;13.47;;
4268;SDS011;2148;48.554;7.834;2024-01-15T10:43:26;18.83;;;10.47;;
4268;SDS011;2148;48.554;7.834;2024-01-15T10:45:52;20.43;;;11.43;;
4268;SDS011;2148;48.554;7.834;2024-01-15T10:48:17;18.67;;;11.43;;
4268;SDS011;2148;48.554;7.834;2024-01-15T10:50:43;22.53;;;13.17;;
4268;SDS011;2148;48.554;7.834;2024-01-15T10:53:09;17.77;;;12.50;;
4268;SDS011;2148;48.554;7.834;2024-01-15T10:55:37;28.00;;;16.80;;
4268;SDS011;2148;48.554;7.834;2024-01-15T10:58:02;17.93;;;12.47;;
4268;SDS011;2148;48.554;7.834;2024-01-15T11:00:28;11.57;;;8.67;;
4268;SDS011;2148;48.554;7.834;2024-01-15T11:02:54;9.23;;;6.67;;
4268;SDS011;2148;48.554;7.834;2024-01-15T11:05:22;13.80;;;9.57;;
4268;SDS011;2148;48.554;7.834;2024-01-15T11:07:48;11.27;;;7.67;;
4268;SDS011;2148;48.554;7.834;2024-01-15T11:13:14;10.83;;;8.37;;
4268;SDS011;2148;48.554;7.834;2024-01-15T11:15:56;10.80;;;6.80;;
4268;SDS011;2148;48.554;7.834;2024-01-15T11:18:22;8.93;;;6.77;;
4268;SDS011;2148;48.554;7.834;2024-01-15T11:29:09;8.87;;;6.07;;
4268;SDS011;2148;48.554;7.834;2024-01-15T11:31:56;5.73;;;5.00;;
4268;SDS011;2148;48.554;7.834;2024-01-15T11:34:21;7.33;;;5.97;;
4268;SDS011;2148;48.554;7.834;2024-01-15T11:37:17;6.70;;;5.97;;
4268;SDS011;2148;48.554;7.834;2024-01-15T11:39:43;7.37;;;5.77;;
4268;SDS011;2148;48.554;7.834;2024-01-15T11:42:09;6.73;;;5.70;;
4268;SDS011;2148;48.554;7.834;2024-01-15T11:44:35;6.77;;;4.77;;
4268;SDS011;2148;48.554;7.834;2024-01-15T11:47:02;8.53;;;5.80;;
4268;SDS011;2148;48.554;7.834;2024-01-15T11:52:32;6.70;;;4.87;;
4268;SDS011;2148;48.554;7.834;2024-01-15T11:57:52;5.17;;;4.33;;
4268;SDS011;2148;48.554;7.834;2024-01-15T12:00:19;7.10;;;4.83;;
4268;SDS011;2148;48.554;7.834;2024-01-15T12:02:46;4.87;;;3.53;;
4268;SDS011;2148;48.554;7.834;2024-01-15T12:05:12;5.47;;;3.93;;
4268;SDS011;2148;48.554;7.834;2024-01-15T12:07:39;6.37;;;5.23;;
4268;SDS011;2148;48.554;7.834;2024-01-15T12:10:11;8.00;;;5.03;;
4268;SDS011;2148;48.554;7.834;2024-01-15T12:12:39;6.47;;;4.93;;
4268;SDS011;2148;48.554;7.834;2024-01-15T12:15:09;6.80;;;4.77;;
4268;SDS011;2148;48.554;7.834;2024-01-15T12:17:35;6.10;;;5.10;;
4268;SDS011;2148;48.554;7.834;2024-01-15T12:20:01;5.60;;;5.03;;
4268;SDS011;2148;48.554;7.834;2024-01-15T12:22:27;8.40;;;6.30;;
4268;SDS011;2148;48.554;7.834;2024-01-15T12:24:53;5.00;;;4.47;;
4268;SDS011;2148;48.554;7.834;2024-01-15T12:27:18;6.23;;;5.17;;
4268;SDS011;2148;48.554;7.834;2024-01-15T12:29:44;9.17;;;5.90;;
4268;SDS011;2148;48.554;7.834;2024-01-15T12:32:09;11.77;;;7.40;;
4268;SDS011;2148;48.554;7.834;2024-01-15T12:34:34;20.93;;;14.10;;
4268;SDS011;2148;48.554;7.834;2024-01-15T12:37:00;10.87;;;7.77;;
4268;SDS011;2148;48.554;7.834;2024-01-15T12:39:25;6.77;;;5.53;;
4268;SDS011;2148;48.554;7.834;2024-01-15T12:41:51;9.03;;;6.00;;
4268;SDS011;2148;48.554;7.834;2024-01-15T12:44:16;6.73;;;5.17;;
4268;SDS011;2148;48.554;7.834;2024-01-15T12:46:41;6.97;;;6.00;;
4268;SDS011;2148;48.554;7.834;2024-01-15T12:49:07;7.33;;;5.70;;
4268;SDS011;2148;48.554;7.834;2024-01-15T12:51:34;5.60;;;5.00;;
4268;SDS011;2148;48.554;7.834;2024-01-15T12:53:59;6.27;;;5.57;;
4268;SDS011;2148;48.554;7.834;2024-01-15T12:56:24;5.37;;;4.83;;
4268;SDS011;2148;48.554;7.834;2024-01-15T12:58:50;7.70;;;5.13;;
4268;SDS011;2148;48.554;7.834;2024-01-15T13:01:15;6.47;;;5.07;;
4268;SDS011;2148;48.554;7.834;2024-01-15T13:03:40;5.67;;;5.07;;
4268;SDS011;2148;48.554;7.834;2024-01-15T13:06:06;6.33;;;4.80;;
4268;SDS011;2148;48.554;7.834;2024-01-15T13:08:31;5.97;;;5.17;;
4268;SDS011;2148;48.554;7.834;2024-01-15T13:10:57;7.17;;;5.40;;
4268;SDS011;2148;48.554;7.834;2024-01-15T13:13:22;5.93;;;4.33;;
4268;SDS011;2148;48.554;7.834;2024-01-15T13:15:48;10.47;;;7.87;;
4268;SDS011;2148;48.554;7.834;2024-01-15T13:18:13;10.63;;;5.93;;
4268;SDS011;2148;48.554;7.834;2024-01-15T13:20:38;4.77;;;4.27;;
4268;SDS011;2148;48.554;7.834;2024-01-15T13:23:04;7.70;;;6.50;;
4268;SDS011;2148;48.554;7.834;2024-01-15T13:25:29;6.87;;;5.90;;
4268;SDS011;2148;48.554;7.834;2024-01-15T13:27:54;10.57;;;7.93;;
4268;SDS011;2148;48.554;7.834;2024-01-15T13:30:20;7.63;;;6.33;;
4268;SDS011;2148;48.554;7.834;2024-01-15T13:32:45;6.80;;;5.33;;
4268;SDS011;2148;48.554;7.834;2024-01-15T13:35:11;7.10;;;6.13;;
4268;SDS011;2148;48.554;7.834;2024-01-15T13:37:38;12.23;;;8.13;;
4268;SDS011;2148;48.554;7.834;2024-01-15T13:40:06;9.73;;;7.60;;
4268;SDS011;2148;48.554;7.834;2024-01-15T13:42:34;10.97;;;7.97;;
4268;SDS011;2148;48.554;7.834;2024-01-15T13:45:03;11.93;;;8.87;;
4268;SDS011;2148;48.554;7.834;2024-01-15T13:47:30;9.33;;;7.13;;
4268;SDS011;2148;48.554;7.834;2024-01-15T13:49:55;7.17;;;6.40;;
4268;SDS011;2148;48.554;7.834;2024-01-15T13:52:21;6.93;;;5.37;;
4268;SDS011;2148;48.554;7.834;2024-01-15T13:54:46;8.73;;;6.50;;
4268;SDS011;2148;48.554;7.834;2024-01-15T13:57:11;11.63;;;9.27;;
4268;SDS011;2148;48.554;7.834;2024-01-15T13:59:36;7.43;;;6.57;;
4268;SDS011;2148;48.554;7.834;2024-01-15T14:02:02;11.33;;;8.50;;
4268;SDS011;2148;48.554;7.834;2024-01-15T14:04:27;8.73;;;7.00;;
4268;SDS011;2148;48.554;7.834;2024-01-15T14:06:53;7.83;;;6.20;;
4268;SDS011;2148;48.554;7.834;2024-01-15T14:09:18;6.07;;;5.47;;
4268;SDS011;2148;48.554;7.834;2024-01-15T14:11:43;7.83;;;6.80;;
4268;SDS011;2148;48.554;7.834;2024-01-15T14:14:08;7.33;;;5.83;;
4268;SDS011;2148;48.554;7.834;2024-01-15T14:16:34;7.27;;;5.87;;
4268;SDS011;2148;48.554;7.834;2024-01-15T14:18:59;10.77;;;6.20;;
4268;SDS011;2148;48.554;7.834;2024-01-15T14:21:27;8.77;;;7.77;;
4268;SDS011;2148;48.554;7.834;2024-01-15T14:23:52;9.73;;;7.90;;
4268;SDS011;2148;48.554;7.834;2024-01-15T14:26:17;8.33;;;5.13;;
4268;SDS011;2148;48.554;7.834;2024-01-15T14:28:43;15.83;;;8.93;;
4268;SDS011;2148;48.554;7.834;2024-01-15T14:31:08;19.60;;;11.90;;
4268;SDS011;2148;48.554;7.834;2024-01-15T14:33:34;17.70;;;9.57;;
4268;SDS011;2148;48.554;7.834;2024-01-15T14:35:59;22.10;;;11.87;;
4268;SDS011;2148;48.554;7.834;2024-01-15T14:38:25;16.07;;;11.57;;
4268;SDS011;2148;48.554;7.834;2024-01-15T14:40:50;9.53;;;7.50;;
4268;SDS011;2148;48.554;7.834;2024-01-15T14:43:15;11.40;;;9.23;;
4268;SDS011;2148;48.554;7.834;2024-01-15T14:45:40;9.40;;;7.20;;
4268;SDS011;2148;48.554;7.834;2024-01-15T14:48:06;11.23;;;8.03;;
4268;SDS011;2148;48.554;7.834;2024-01-15T14:50:31;10.50;;;7.97;;
4268;SDS011;2148;48.554;7.834;2024-01-15T14:52:56;13.50;;;10.70;;
4268;SDS011;2148;48.554;7.834;2024-01-15T14:55:21;13.93;;;10.53;;
4268;SDS011;2148;48.554;7.834;2024-01-15T14:57:48;11.60;;;8.87;;
4268;SDS011;2148;48.554;7.834;2024-01-15T15:00:14;9.10;;;6.83;;
4268;SDS011;2148;48.554;7.834;2024-01-15T15:02:41;12.80;;;6.63;;
4268;SDS011;2148;48.554;7.834;2024-01-15T15:05:07;12.37;;;6.47;;
4268;SDS011;2148;48.554;7.834;2024-01-15T15:07:33;9.30;;;6.50;;
4268;SDS011;2148;48.554;7.834;2024-01-15T15:10:01;12.60;;;6.33;;